Time;durP1;ratioP1;P1;durP2;ratioP2;P2;SDS_P1;SDS_P2;PMS_P1;PMS_P2;Temp;Humidity;BMP_temperature;BMP_pressure;BME280_temperature;BME280_humidity;BME280_pressure;Samples;Min_cycle;Max_cycle;Signal;HPM_P1;HPM_P2
2023/09/07 00:01:52;;;;;;;12.03;9.73;;;;;;;23.46;80.19;99924.16;5009511;28;20273;-64
2023/09/07 00:04:19;;;;;;;9.67;8.90;;;;;;;23.45;80.14;99919.00;4993044;28;20201;-63
2023/09/07 00:06:46;;;;;;;10.77;8.83;;;;;;;23.45;79.73;99924.44;5009015;28;20917;-63
2023/09/07 00:09:15;;;;;;;10.10;9.27;;;;;;;23.41;79.47;99924.16;5001543;28;20256;-64
2023/09/07 00:11:42;;;;;;;8.80;8.30;;;;;;;23.41;79.43;99918.75;4992904;28;20197;-63
2023/09/07 00:14:09;;;;;;;9.23;8.60;;;;;;;23.41;78.98;99918.75;4999170;28;20269;-63
2023/09/07 00:16:37;;;;;;;8.77;8.17;;;;;;;23.44;78.96;99920.09;4997388;28;20261;-64
2023/09/07 00:19:04;;;;;;;9.57;8.63;;;;;;;23.48;79.50;99919.28;5014320;28;20195;-63
2023/09/07 00:21:31;;;;;;;10.17;9.23;;;;;;;23.52;79.47;99928.50;5014281;28;20605;-64
2023/09/07 00:23:58;;;;;;;10.47;9.37;;;;;;;23.51;79.58;99935.00;5014283;28;20253;-64
2023/09/07 00:26:26;;;;;;;10.23;8.17;;;;;;;23.51;80.35;99921.44;5014337;28;20204;-64
2023/09/07 00:28:52;;;;;;;8.67;7.97;;;;;;;23.54;79.15;99922.81;5001328;28;20270;-64
2023/09/07 00:31:19;;;;;;;9.13;8.23;;;;;;;23.54;79.79;99929.06;5014442;28;20598;-64
2023/09/07 00:33:45;;;;;;;11.63;8.80;;;;;;;23.58;79.32;99929.31;5014842;28;20781;-64
2023/09/07 00:36:12;;;;;;;9.13;8.23;;;;;;;23.54;81.51;99920.09;5013513;28;20262;-64
2023/09/07 00:38:39;;;;;;;9.13;8.53;;;;;;;23.54;81.23;99918.22;5006637;28;20201;-64
2023/09/07 00:41:05;;;;;;;9.07;8.27;;;;;;;23.53;81.13;99921.97;4994616;28;20745;-64
2023/09/07 00:43:33;;;;;;;9.97;8.93;;;;;;;23.55;81.28;99917.13;4994701;28;20622;-64
2023/09/07 00:46:00;;;;;;;8.67;8.00;;;;;;;23.51;83.78;99910.59;4998777;28;20255;-64
2023/09/07 00:48:27;;;;;;;12.03;8.67;;;;;;;23.51;84.40;99913.31;4995712;28;20247;-64
2023/09/07 00:50:54;;;;;;;9.80;8.97;;;;;;;23.46;84.22;99921.44;4994627;28;20230;-64
2023/09/07 00:53:22;;;;;;;10.70;9.80;;;;;;;23.43;85.11;99921.16;4994565;28;20196;-64
2023/09/07 00:55:49;;;;;;;11.50;10.70;;;;;;;23.42;85.54;99919.53;5000280;28;20262;-64
2023/09/07 00:58:15;;;;;;;10.93;10.03;;;;;;;23.40;86.05;99919.81;5013675;28;20621;-64
2023/09/07 01:00:44;;;;;;;10.93;10.13;;;;;;;23.40;86.73;99919.81;5001063;28;20269;-64
2023/09/07 01:03:10;;;;;;;11.40;10.50;;;;;;;23.42;87.15;99914.94;4994480;28;20194;-64
2023/09/07 01:05:44;;;;;;;12.17;10.93;;;;;;;23.41;87.45;99913.31;4994303;28;20254;-64
2023/09/07 01:08:16;;;;;;;11.50;10.63;;;;;;;23.37;87.89;99912.22;5020811;28;20193;-63
2023/09/07 01:10:43;;;;;;;12.13;11.13;;;;;;;23.32;88.96;99904.06;5014227;28;20199;-64
2023/09/07 01:13:10;;;;;;;11.50;10.50;;;;;;;23.31;89.21;99901.59;4996543;28;20267;-63
2023/09/07 01:15:38;;;;;;;12.00;10.73;;;;;;;23.28;89.61;99902.16;4994348;28;20280;-64
2023/09/07 01:18:08;;;;;;;19.20;11.90;;;;;;;23.18;90.40;99907.53;4994367;28;20249;-64
2023/09/07 01:20:37;;;;;;;12.83;11.73;;;;;;;23.11;90.88;99905.06;4994297;28;20255;-64
2023/09/07 01:23:05;;;;;;;13.57;12.40;;;;;;;23.10;91.22;99903.44;4994146;28;20287;-64
2023/09/07 01:25:32;;;;;;;14.57;13.07;;;;;;;23.11;91.49;99902.34;5009242;28;20259;-64
2023/09/07 01:27:59;;;;;;;16.33;12.70;;;;;;;23.02;92.40;99898.53;5013428;28;20282;-64
2023/09/07 01:30:28;;;;;;;13.47;12.50;;;;;;;22.96;92.56;99904.22;5013673;28;20194;-64
2023/09/07 01:32:55;;;;;;;14.37;13.27;;;;;;;23.00;93.31;99900.72;5000206;28;20254;-63
2023/09/07 01:35:23;;;;;;;15.63;14.17;;;;;;;23.01;92.88;99907.75;4993933;28;20219;-64
2023/09/07 01:37:50;;;;;;;15.30;13.77;;;;;;;23.01;93.67;99907.75;4993868;28;20195;-64
2023/09/07 01:40:18;;;;;;;15.97;14.47;;;;;;;23.00;93.24;99906.13;4998526;28;20186;-64
2023/09/07 01:42:44;;;;;;;16.50;14.83;;;;;;;22.94;93.86;99900.94;5012735;28;20198;-64
2023/09/07 01:45:11;;;;;;;16.77;15.00;;;;;;;22.91;94.00;99905.00;5011018;28;20198;-64
2023/09/07 01:47:38;;;;;;;15.77;14.23;;;;;;;22.91;94.68;99907.72;4998677;28;20194;-64
2023/09/07 01:50:05;;;;;;;17.00;15.20;;;;;;;22.92;94.63;99912.06;4993460;28;20199;-64
2023/09/07 01:52:32;;;;;;;18.50;15.30;;;;;;;22.91;94.58;99907.72;5002986;28;20190;-64
2023/09/07 01:54:59;;;;;;;16.47;15.03;;;;;;;22.97;94.66;99912.09;5000522;28;20219;-64
2023/09/07 01:57:27;;;;;;;17.10;15.53;;;;;;;22.99;94.78;99909.91;4993472;28;20191;-64
2023/09/07 01:59:54;;;;;;;18.50;16.23;;;;;;;22.93;94.76;99907.44;4993642;28;20195;-64
2023/09/07 02:02:20;;;;;;;18.03;16.47;;;;;;;22.94;94.16;99904.47;4998257;28;20199;-64
2023/09/07 02:04:47;;;;;;;16.80;15.37;;;;;;;23.00;94.44;99911.56;5011996;28;20670;-64
2023/09/07 02:07:14;;;;;;;17.20;15.63;;;;;;;23.05;94.08;99906.16;5011299;28;20729;-63
2023/09/07 02:09:41;;;;;;;17.03;15.50;;;;;;;23.08;93.90;99908.31;5032108;28;20190;-63
2023/09/07 02:12:08;;;;;;;16.40;14.77;;;;;;;23.08;93.99;99908.31;5018025;28;20246;-63
2023/09/07 02:14:36;;;;;;;17.77;15.83;;;;;;;23.12;93.66;99909.41;4992126;28;20226;-64
2023/09/07 02:17:02;;;;;;;17.50;15.70;;;;;;;23.13;93.34;99915.66;4992097;28;20192;-64
2023/09/07 02:19:29;;;;;;;18.57;16.67;;;;;;;23.16;93.01;99915.91;4992559;28;20746;-64
2023/09/07 02:21:56;;;;;;;17.37;15.67;;;;;;;23.10;92.48;99908.88;4992881;28;20200;-64
2023/09/07 02:24:22;;;;;;;17.07;15.37;;;;;;;23.12;92.27;99914.81;5009977;28;20197;-64
2023/09/07 02:26:50;;;;;;;18.80;16.90;;;;;;;23.16;92.83;99920.53;5000615;28;20199;-64
2023/09/07 02:29:17;;;;;;;18.97;17.13;;;;;;;23.11;93.03;99924.03;5001864;28;20582;-64
2023/09/07 02:31:45;;;;;;;19.43;17.40;;;;;;;23.09;92.24;99923.50;4998859;28;20198;-63
2023/09/07 02:34:11;;;;;;;23.70;18.70;;;;;;;23.09;92.72;99920.81;4992417;28;20281;-64
2023/09/07 02:36:38;;;;;;;20.07;18.20;;;;;;;23.10;92.95;99917.00;4997342;28;20195;-63
2023/09/07 02:39:05;;;;;;;18.80;16.83;;;;;;;23.11;92.24;99917.81;5011683;28;20198;-63
2023/09/07 02:41:32;;;;;;;21.27;18.70;;;;;;;23.13;92.75;99911.06;5010882;28;20278;-64
2023/09/07 02:43:59;;;;;;;18.43;16.63;;;;;;;23.10;92.95;99911.56;5000320;28;20196;-64
2023/09/07 02:46:26;;;;;;;22.40;19.37;;;;;;;23.01;92.95;99907.75;4992037;28;20201;-64
2023/09/07 02:48:56;;;;;;;20.20;17.80;;;;;;;22.88;94.58;99907.44;4992089;28;20200;-64
2023/09/07 02:51:23;;;;;;;19.77;17.77;;;;;;;22.79;95.49;99899.00;4991819;28;20187;-64
2023/09/07 02:53:50;;;;;;;20.13;18.17;;;;;;;22.74;95.18;99904.41;4992749;28;20222;-64
2023/09/07 02:56:17;;;;;;;22.30;19.47;;;;;;;22.73;96.40;99902.78;5006911;28;20699;-64
2023/09/07 02:58:45;;;;;;;20.20;18.40;;;;;;;22.73;95.46;99913.63;5011276;28;20254;-63
2023/09/07 03:01:13;;;;;;;20.57;18.43;;;;;;;22.65;95.59;99914.13;5011159;28;20200;-63
2023/09/07 03:03:41;;;;;;;19.93;18.03;;;;;;;22.61;95.94;99915.72;5011185;28;20201;-63
2023/09/07 03:06:13;;;;;;;20.90;18.13;;;;;;;22.60;95.82;99914.09;5011301;28;20198;-64
2023/09/07 03:08:41;;;;;;;23.97;18.63;;;;;;;22.58;96.15;99905.41;5027165;28;20277;-63
2023/09/07 03:11:08;;;;;;;19.10;16.93;;;;;;;22.51;96.95;99914.88;5022456;28;20199;-63
2023/09/07 03:13:35;;;;;;;23.43;18.17;;;;;;;22.47;96.53;99916.47;5011015;28;20194;-63
2023/09/07 03:16:04;;;;;;;20.20;18.27;;;;;;;22.43;96.51;99918.03;5009859;28;20225;-64
2023/09/07 03:18:31;;;;;;;22.57;18.77;;;;;;;22.39;97.09;99925.88;5010754;28;20213;-63
2023/09/07 03:21:01;;;;;;;19.63;17.93;;;;;;;22.42;98.36;99922.63;5011082;28;20244;-63
2023/09/07 03:23:30;;;;;;;20.40;18.40;;;;;;;22.44;98.42;99923.19;4999820;28;20749;-63
2023/09/07 03:25:57;;;;;;;17.97;16.23;;;;;;;22.42;97.79;99925.34;4991207;28;20210;-63
2023/09/07 03:28:23;;;;;;;19.33;17.53;;;;;;;22.46;97.50;99921.06;5004699;28;20248;-63
2023/09/07 03:30:50;;;;;;;22.73;18.27;;;;;;;22.44;96.46;99925.91;5010163;28;20693;-63
2023/09/07 03:33:17;;;;;;;21.00;17.60;;;;;;;22.38;97.18;99923.44;5010605;28;20296;-63
2023/09/07 03:35:43;;;;;;;19.93;16.50;;;;;;;22.45;99.34;99927.53;5009695;28;20221;-63
2023/09/07 03:38:10;;;;;;;20.43;18.40;;;;;;;22.53;99.08;99927.06;5010384;28;20190;-64
2023/09/07 03:40:38;;;;;;;21.97;18.37;;;;;;;22.56;97.08;99934.66;5010416;28;20200;-64
2023/09/07 03:43:05;;;;;;;18.10;16.50;;;;;;;22.53;96.74;99929.75;4999520;28;20200;-64
2023/09/07 03:45:31;;;;;;;20.10;18.07;;;;;;;22.59;97.16;99936.84;4992044;28;20202;-63
2023/09/07 03:47:58;;;;;;;19.63;17.60;;;;;;;22.60;96.23;99941.19;4992035;28;20655;-64
2023/09/07 03:50:25;;;;;;;18.67;16.90;;;;;;;22.57;96.29;99940.88;4994486;28;20278;-64
2023/09/07 03:52:52;;;;;;;20.87;18.20;;;;;;;22.58;96.78;99940.63;4994684;28;20194;-63
2023/09/07 03:55:19;;;;;;;18.83;16.93;;;;;;;22.59;97.80;99942.28;4995383;28;20218;-64
2023/09/07 03:57:47;;;;;;;19.33;17.33;;;;;;;22.60;96.06;99943.91;4994885;28;20194;-64
2023/09/07 04:00:15;;;;;;;20.50;18.57;;;;;;;22.62;97.22;99941.72;4994586;28;20199;-64
2023/09/07 04:02:42;;;;;;;22.70;18.97;;;;;;;22.63;96.06;99951.50;5009972;28;20194;-64
2023/09/07 04:05:10;;;;;;;21.13;19.07;;;;;;;22.69;96.82;99945.03;4994220;28;20253;-64
2023/09/07 04:07:37;;;;;;;20.93;18.73;;;;;;;22.73;95.09;99942.59;5010505;28;20201;-64
2023/09/07 04:10:04;;;;;;;20.13;17.87;;;;;;;22.73;94.93;99948.84;5028733;28;20187;-64
2023/09/07 04:12:31;;;;;;;22.50;18.20;;;;;;;22.73;95.76;99951.53;5003441;28;20190;-64
2023/09/07 04:14:59;;;;;;;20.27;16.80;;;;;;;22.83;96.38;99953.50;5012552;28;20226;-64
2023/09/07 04:17:25;;;;;;;28.97;18.67;;;;;;;22.93;94.21;99948.91;5013769;28;20194;-64
2023/09/07 04:19:52;;;;;;;20.07;18.00;;;;;;;23.15;94.04;99952.25;5013087;28;20195;-64
2023/09/07 04:22:19;;;;;;;20.67;18.00;;;;;;;23.33;92.11;99954.50;5013865;28;20208;-64
2023/09/07 04:24:48;;;;;;;21.53;16.83;;;;;;;23.59;90.41;99953.47;5013572;28;20253;-64
2023/09/07 04:27:15;;;;;;;26.03;16.87;;;;;;;23.89;87.72;99956.19;5012241;28;20249;-65
2023/09/07 04:29:41;;;;;;;17.77;15.87;;;;;;;24.08;87.03;99961.91;4994470;28;20250;-65
2023/09/07 04:32:09;;;;;;;19.23;17.30;;;;;;;24.35;88.26;99957.03;5013241;28;20200;-65
2023/09/07 04:34:36;;;;;;;19.70;15.80;;;;;;;24.55;86.46;99952.34;5012466;28;20685;-65
2023/09/07 04:37:03;;;;;;;33.13;16.43;;;;;;;24.79;83.12;99966.19;5013512;28;20700;-65
2023/09/07 04:39:29;;;;;;;26.13;16.90;;;;;;;24.93;83.96;99965.31;4999555;28;20257;-66
2023/09/07 04:41:56;;;;;;;24.47;17.47;;;;;;;25.23;83.42;99975.22;5006666;28;20583;-66
2023/09/07 04:44:23;;;;;;;17.10;14.13;;;;;;;25.50;82.00;99980.28;5013737;28;20577;-66
2023/09/07 04:46:49;;;;;;;23.77;14.90;;;;;;;25.59;81.25;99978.59;5012090;28;20198;-66
2023/09/07 04:49:17;;;;;;;19.27;14.90;;;;;;;25.73;79.67;99985.03;5013307;28;20276;-65
2023/09/07 04:51:44;;;;;;;21.23;14.43;;;;;;;25.71;78.25;99979.88;5013424;28;20206;-65
2023/09/07 04:54:11;;;;;;;15.33;13.80;;;;;;;25.84;78.71;99981.16;5014013;28;20194;-65
2023/09/07 04:56:37;;;;;;;15.10;13.47;;;;;;;25.99;77.76;99989.22;5012720;28;20257;-65
2023/09/07 04:59:04;;;;;;;17.30;14.27;;;;;;;26.03;76.97;99995.72;5011340;28;20193;-66
2023/09/07 05:01:32;;;;;;;13.73;12.37;;;;;;;25.96;76.14;99989.81;4998705;28;20186;-65
2023/09/07 05:03:58;;;;;;;17.40;15.67;;;;;;;25.66;77.65;99989.97;5012795;28;20808;-65
2023/09/07 05:06:26;;;;;;;21.43;16.53;;;;;;;25.47;79.24;99989.03;5012949;28;20276;-65
2023/09/07 05:08:53;;;;;;;14.90;12.90;;;;;;;25.43;80.26;99985.22;5031409;28;20236;-65
2023/09/07 05:11:20;;;;;;;19.37;13.10;;;;;;;25.58;79.00;99987.84;5021598;28;20252;-66
2023/09/07 05:13:46;;;;;;;18.83;13.97;;;;;;;25.61;78.74;99987.28;5003973;28;20341;-66
2023/09/07 05:16:13;;;;;;;19.27;15.03;;;;;;;25.52;79.00;99984.34;4993226;28;20219;-73
2023/09/07 05:18:42;;;;;;;14.47;11.93;;;;;;;25.43;79.67;99986.03;4993263;28;20195;-73
2023/09/07 05:21:13;;;;;;;15.70;13.53;;;;;;;25.57;77.03;99994.38;5000261;28;20205;-73
2023/09/07 05:23:41;;;;;;;19.97;14.67;;;;;;;25.60;77.42;99985.66;5010659;28;20189;-72
2023/09/07 05:26:08;;;;;;;19.43;11.90;;;;;;;25.50;79.26;99985.72;4990770;28;20733;-73
2023/09/07 05:28:34;;;;;;;13.40;12.13;;;;;;;25.74;77.29;99992.09;4992403;28;20202;-72
2023/09/07 05:31:01;;;;;;;15.83;12.03;;;;;;;26.12;75.45;99999.44;4998541;28;20206;-73
2023/09/07 05:33:28;;;;;;;12.23;11.00;;;;;;;26.69;72.97;100008.50;5017407;28;20529;-70
2023/09/07 05:35:54;;;;;;;12.33;10.63;;;;;;;27.26;70.66;100010.31;5010420;28;20225;-70
2023/09/07 05:38:21;;;;;;;11.77;10.57;;;;;;;27.79;68.53;100003.56;5007613;28;20255;-71
2023/09/07 05:40:53;;;;;;;12.37;11.13;;;;;;;28.26;67.37;100003.38;5008474;28;20187;-71
2023/09/07 05:43:20;;;;;;;11.70;10.53;;;;;;;28.14;66.32;99992.09;5009904;28;20197;-70
2023/09/07 05:45:47;;;;;;;16.43;11.07;;;;;;;28.06;66.72;99999.03;4992230;28;20202;-70
2023/09/07 05:48:16;;;;;;;12.07;10.23;;;;;;;28.05;67.06;100002.09;4999747;28;20582;-71
2023/09/07 05:50:43;;;;;;;11.20;10.23;;;;;;;27.95;67.30;99996.78;5011153;28;20198;-71
2023/09/07 05:53:09;;;;;;;12.57;11.27;;;;;;;28.07;66.51;99991.66;5011308;28;20659;-72
2023/09/07 05:55:36;;;;;;;12.73;10.37;;;;;;;28.44;65.96;99997.91;5011241;28;20217;-70
2023/09/07 05:58:07;;;;;;;15.00;13.53;;;;;;;28.88;64.45;100000.06;5009404;28;20264;-70
2023/09/07 06:00:34;;;;;;;14.20;12.57;;;;;;;28.92;63.17;100001.09;5012020;28;20182;-70
2023/09/07 06:03:01;;;;;;;12.80;11.53;;;;;;;29.10;63.08;100009.22;5007137;28;20657;-70
2023/09/07 06:05:28;;;;;;;11.87;10.97;;;;;;;29.38;62.54;99999.03;5020971;28;20604;-71
2023/09/07 06:07:55;;;;;;;12.77;11.47;;;;;;;29.62;60.92;100002.38;5019881;28;20239;-69
2023/09/07 06:10:22;;;;;;;11.73;10.13;;;;;;;29.70;60.47;100007.13;5020228;28;20186;-69
2023/09/07 06:12:48;;;;;;;10.30;9.43;;;;;;;30.00;59.12;100011.09;5010717;28;20202;-69
2023/09/07 06:15:17;;;;;;;11.63;10.53;;;;;;;30.35;57.93;100019.28;4992040;28;20194;-69
2023/09/07 06:17:45;;;;;;;10.93;9.90;;;;;;;30.62;56.95;100027.31;5010885;28;20202;-71
2023/09/07 06:20:12;;;;;;;11.97;10.80;;;;;;;30.87;56.06;100025.88;5012145;28;20193;-68
2023/09/07 06:22:39;;;;;;;14.07;11.13;;;;;;;30.62;57.46;100027.31;5005668;28;20751;-68
2023/09/07 06:25:06;;;;;;;15.53;11.50;;;;;;;30.64;56.82;100033.31;4999127;28;20264;-70
2023/09/07 06:27:33;;;;;;;12.27;11.13;;;;;;;30.73;56.07;100031.44;5009776;28;20210;-67
2023/09/07 06:29:59;;;;;;;12.60;11.40;;;;;;;30.55;56.52;100034.38;5005894;28;20372;-70
2023/09/07 06:32:27;;;;;;;10.07;9.13;;;;;;;30.21;58.19;100024.00;5007755;28;20265;-68
2023/09/07 06:34:54;;;;;;;10.73;9.77;;;;;;;29.85;59.35;100028.69;5009090;28;20187;-68
2023/09/07 06:37:21;;;;;;;17.10;12.20;;;;;;;29.44;59.88;100019.75;5004548;28;20301;-69
2023/09/07 06:39:47;;;;;;;18.70;11.57;;;;;;;29.30;61.50;100018.94;5001953;28;20194;-67
2023/09/07 06:42:15;;;;;;;13.30;9.97;;;;;;;29.50;60.54;100018.50;5006901;28;20199;-69
2023/09/07 06:44:42;;;;;;;10.27;9.17;;;;;;;29.70;59.75;100020.81;5002315;28;20203;-67
2023/09/07 06:47:09;;;;;;;29.27;11.23;;;;;;;29.87;59.28;100020.97;5010241;28;20210;-67
2023/09/07 06:49:38;;;;;;;10.47;9.37;;;;;;;30.00;57.95;100022.84;5000388;28;20277;-68
2023/09/07 06:52:05;;;;;;;10.00;9.03;;;;;;;30.14;58.74;100023.63;4997226;28;20194;-69
2023/09/07 06:54:32;;;;;;;18.67;10.90;;;;;;;30.43;57.78;100034.16;5009690;28;20837;-67
2023/09/07 06:56:58;;;;;;;12.23;10.73;;;;;;;30.48;56.09;100034.00;5010997;28;20214;-68
2023/09/07 06:59:25;;;;;;;9.33;8.53;;;;;;;30.52;56.53;100035.81;5010856;28;20252;-67
2023/09/07 07:01:52;;;;;;;11.23;10.07;;;;;;;30.74;56.05;100038.53;5010965;28;20194;-69
2023/09/07 07:04:19;;;;;;;11.47;10.47;;;;;;;31.02;55.33;100039.16;5009580;28;20190;-68
2023/09/07 07:06:47;;;;;;;12.63;10.57;;;;;;;31.12;55.15;100034.22;5011456;28;20646;-68
2023/09/07 07:09:13;;;;;;;13.80;10.40;;;;;;;31.16;55.12;100029.72;5007998;28;20190;-67
2023/09/07 07:11:41;;;;;;;15.00;10.07;;;;;;;30.89;55.75;100029.91;5004986;28;20198;-73
2023/09/07 07:14:08;;;;;;;9.90;8.97;;;;;;;30.89;55.40;100024.44;4996881;28;20218;-67
2023/09/07 07:16:35;;;;;;;14.53;10.03;;;;;;;30.91;55.22;100029.59;4994578;28;20259;-66
2023/09/07 07:19:02;;;;;;;43.50;11.97;;;;;;;30.55;55.45;100018.75;5008283;28;20672;-71
2023/09/07 07:21:28;;;;;;;14.27;10.23;;;;;;;30.49;55.98;100024.69;5022855;28;20225;-67
2023/09/07 07:23:56;;;;;;;15.03;11.03;;;;;;;30.30;57.41;100026.81;5008521;28;20744;-68
2023/09/07 07:26:23;;;;;;;25.43;10.47;;;;;;;30.18;57.74;100024.63;5007745;28;20248;-70
2023/09/07 07:28:50;;;;;;;25.53;10.73;;;;;;;30.13;57.75;100021.97;5009519;28;20271;-72
2023/09/07 07:31:16;;;;;;;25.33;9.60;;;;;;;30.10;57.34;100021.78;5006664;28;20202;-68
2023/09/07 07:33:43;;;;;;;12.40;8.90;;;;;;;29.97;58.70;100023.44;5007722;28;20284;-73
2023/09/07 07:36:10;;;;;;;11.83;10.67;;;;;;;29.64;57.88;100023.97;5008902;28;20233;-74
2023/09/07 07:38:37;;;;;;;16.73;10.57;;;;;;;29.46;59.68;100022.97;5006106;28;20253;-73
2023/09/07 07:41:05;;;;;;;9.90;9.10;;;;;;;29.43;60.65;100018.09;5008105;28;20229;-75
2023/09/07 07:43:33;;;;;;;12.97;10.13;;;;;;;29.63;59.08;100023.16;5008106;28;20194;-75
2023/09/07 07:46:00;;;;;;;11.03;9.63;;;;;;;29.61;59.68;100030.06;4994603;28;20285;-72
2023/09/07 07:48:28;;;;;;;10.20;9.23;;;;;;;29.82;59.08;100029.31;5008274;28;20686;-75
2023/09/07 07:50:55;;;;;;;9.67;8.87;;;;;;;29.99;58.15;100032.19;5009428;28;20256;-71
2023/09/07 07:53:21;;;;;;;11.10;9.73;;;;;;;30.33;56.12;100043.44;5005445;28;20694;-73
2023/09/07 07:55:48;;;;;;;10.87;8.60;;;;;;;30.58;54.90;100042.78;4994812;28;20252;-71
2023/09/07 07:58:16;;;;;;;11.57;9.00;;;;;;;30.58;54.00;100048.25;5000092;28;20269;-75
2023/09/07 08:00:47;;;;;;;9.80;8.37;;;;;;;30.60;55.31;100043.28;5008922;28;20198;-74
2023/09/07 08:03:14;;;;;;;13.20;8.70;;;;;;;30.37;54.71;100047.16;5009925;28;20193;-74
2023/09/07 08:05:40;;;;;;;11.30;8.47;;;;;;;30.30;55.69;100043.25;5009297;28;20202;-73
2023/09/07 08:08:07;;;;;;;8.63;7.80;;;;;;;30.29;53.68;100047.91;5009361;28;20197;-74
2023/09/07 08:10:36;;;;;;;14.43;9.00;;;;;;;30.35;54.08;100051.34;5007877;28;20202;-72
2023/09/07 08:13:04;;;;;;;10.83;9.83;;;;;;;30.02;56.10;100048.03;5009602;28;20220;-75
2023/09/07 08:15:33;;;;;;;10.53;9.63;;;;;;;29.52;57.61;100038.16;5016561;28;20198;-75
2023/09/07 08:18:00;;;;;;;10.50;9.50;;;;;;;29.56;57.59;100033.69;5011234;28;20295;-75
2023/09/07 08:20:29;;;;;;;9.67;8.77;;;;;;;29.28;58.09;100011.03;5003022;28;20195;-74
2023/09/07 08:22:56;;;;;;;9.77;8.77;;;;;;;29.49;56.47;100033.31;5004174;28;20341;-72
2023/09/07 08:25:23;;;;;;;10.93;9.17;;;;;;;29.41;57.14;100028.56;5002966;28;20186;-75
2023/09/07 08:27:50;;;;;;;10.90;9.70;;;;;;;29.32;57.41;100024.94;5004435;28;20924;-76
2023/09/07 08:30:18;;;;;;;11.27;10.17;;;;;;;29.27;57.49;100029.69;5004017;28;20264;-74
2023/09/07 08:32:47;;;;;;;12.67;10.50;;;;;;;29.22;58.27;100022.38;4998853;28;20226;-75
2023/09/07 08:35:15;;;;;;;11.57;10.37;;;;;;;29.41;58.84;100020.34;5010843;28;20198;-73
2023/09/07 08:37:41;;;;;;;9.27;8.50;;;;;;;29.75;58.28;100023.44;5009885;28;20218;-74
2023/09/07 08:40:11;;;;;;;14.93;9.73;;;;;;;30.06;55.37;100027.09;5017311;28;20224;-72
2023/09/07 08:42:38;;;;;;;26.50;11.17;;;;;;;29.95;56.32;100031.19;5018774;28;20694;-74
2023/09/07 08:45:07;;;;;;;10.80;9.93;;;;;;;29.94;55.19;100029.56;5008713;28;20302;-73
2023/09/07 08:47:35;;;;;;;14.97;10.07;;;;;;;29.76;56.76;100027.78;5006532;28;20212;-73
2023/09/07 08:50:06;;;;;;;11.00;9.63;;;;;;;29.75;56.19;100020.69;5023497;28;20244;-73
2023/09/07 08:52:33;;;;;;;13.27;9.90;;;;;;;29.55;56.15;100020.31;5021312;28;20312;-73
2023/09/07 08:55:00;;;;;;;10.80;9.77;;;;;;;29.30;57.64;100010.72;5012931;28;20198;-74
2023/09/07 08:57:30;;;;;;;11.77;10.03;;;;;;;29.05;58.72;100000.31;5005612;28;20763;-73
2023/09/07 08:59:57;;;;;;;12.63;11.07;;;;;;;28.74;59.78;99999.22;5007169;28;20217;-73
2023/09/07 09:02:24;;;;;;;15.17;9.63;;;;;;;29.03;59.79;100008.81;5011394;28;20293;-73
2023/09/07 09:04:52;;;;;;;10.70;9.93;;;;;;;29.28;57.79;99999.28;5022614;28;20190;-73
2023/09/07 09:07:20;;;;;;;10.30;9.37;;;;;;;29.58;57.18;100009.59;5014626;28;20222;-73
2023/09/07 09:09:47;;;;;;;10.20;9.27;;;;;;;30.08;56.59;100013.09;5017370;28;20284;-73
2023/09/07 09:12:14;;;;;;;10.07;8.90;;;;;;;30.41;54.32;100012.50;4996686;28;20202;-72
2023/09/07 09:14:44;;;;;;;10.83;8.53;;;;;;;30.30;53.25;100010.34;5016549;28;20193;-73
2023/09/07 09:17:13;;;;;;;9.57;8.60;;;;;;;29.93;54.12;100005.22;4996180;28;20308;-72
2023/09/07 09:19:41;;;;;;;10.30;8.60;;;;;;;29.82;54.35;99998.34;5010894;28;20289;-72
2023/09/07 09:22:07;;;;;;;26.73;10.80;;;;;;;29.47;55.04;99996.41;5009114;28;20252;-72
2023/09/07 09:24:36;;;;;;;10.60;8.03;;;;;;;29.45;57.54;99988.50;5012957;28;20256;-72
2023/09/07 09:27:03;;;;;;;8.57;8.07;;;;;;;29.63;58.07;99987.56;5009022;28;20209;-68
2023/09/07 09:29:30;;;;;;;8.47;7.73;;;;;;;29.74;57.37;99986.22;5012923;28;20229;-72
2023/09/07 09:31:57;;;;;;;9.63;8.77;;;;;;;29.79;53.73;99996.22;5011284;28;20198;-72
2023/09/07 09:34:24;;;;;;;10.20;8.63;;;;;;;29.68;53.88;99987.44;5011655;28;20226;-73
2023/09/07 09:36:51;;;;;;;9.77;8.17;;;;;;;29.83;53.87;99989.00;5002840;28;20746;-72
2023/09/07 09:39:24;;;;;;;11.63;8.13;;;;;;;29.90;51.37;99984.72;5008833;28;20257;-73
2023/09/07 09:41:55;;;;;;;11.43;8.60;;;;;;;29.98;52.65;99984.00;5007255;28;20678;-71
2023/09/07 09:44:25;;;;;;;9.10;8.20;;;;;;;30.02;52.34;99982.25;5009092;28;20213;-71
2023/09/07 09:46:53;;;;;;;17.53;8.10;;;;;;;29.99;53.28;99985.59;5007155;28;20205;-72
2023/09/07 09:49:22;;;;;;;15.10;8.77;;;;;;;29.91;53.33;99978.13;5009471;28;20289;-72
2023/09/07 09:51:50;;;;;;;11.70;8.30;;;;;;;29.43;53.95;99973.50;5008380;28;20698;-73
2023/09/07 09:54:18;;;;;;;15.17;7.77;;;;;;;29.62;55.65;99972.25;5008570;28;20197;-72
2023/09/07 09:56:45;;;;;;;22.00;8.80;;;;;;;29.73;54.09;99965.44;5009237;28;20253;-73
2023/09/07 09:59:14;;;;;;;10.57;7.80;;;;;;;29.63;53.56;99962.91;5011332;28;20222;-73
2023/09/07 10:01:45;;;;;;;8.47;7.70;;;;;;;29.81;52.97;99963.88;5010125;28;20263;-72
2023/09/07 10:04:15;;;;;;;8.20;7.50;;;;;;;29.81;52.57;99963.88;5008419;28;20587;-72
2023/09/07 10:06:52;;;;;;;7.83;7.17;;;;;;;29.64;55.38;99955.50;5011581;28;20198;-73
2023/09/07 10:09:19;;;;;;;8.67;8.00;;;;;;;29.54;51.23;99970.22;5010063;28;20198;-73
2023/09/07 10:11:53;;;;;;;14.60;8.60;;;;;;;29.68;51.46;99968.25;5009864;28;20194;-72
2023/09/07 10:14:21;;;;;;;8.87;7.93;;;;;;;29.88;52.82;99961.50;5010813;28;20285;-74
2023/09/07 10:16:51;;;;;;;12.70;7.40;;;;;;;29.85;51.88;99949.25;5010325;28;20653;-72
2023/09/07 10:19:19;;;;;;;27.83;9.13;;;;;;;29.77;51.20;99955.47;5010287;28;20202;-71
2023/09/07 10:21:46;;;;;;;12.63;7.50;;;;;;;29.68;49.23;99960.03;5009220;28;20264;-68
2023/09/07 10:24:25;;;;;;;11.53;7.53;;;;;;;29.72;50.02;99943.81;5010627;28;20201;-72
2023/09/07 10:26:57;;;;;;;9.90;7.10;;;;;;;29.83;51.64;99939.69;5010459;28;20642;-70
2023/09/07 10:29:26;;;;;;;9.00;8.07;;;;;;;30.13;50.33;99947.97;5009804;28;20202;-69
2023/09/07 10:31:53;;;;;;;8.00;7.30;;;;;;;30.05;49.83;99947.91;5010496;28;20272;-69
2023/09/07 10:34:20;;;;;;;7.83;7.13;;;;;;;30.02;48.18;99954.84;5009908;28;20217;-70
2023/09/07 10:36:47;;;;;;;8.37;6.50;;;;;;;29.87;46.45;99955.22;5010771;28;20671;-70
2023/09/07 10:39:14;;;;;;;8.27;7.13;;;;;;;29.73;47.50;99946.25;5010304;28;20267;-71
2023/09/07 10:41:43;;;;;;;10.87;7.27;;;;;;;29.73;47.50;99939.94;5010208;28;20194;-70
2023/09/07 10:44:12;;;;;;;14.00;7.03;;;;;;;29.61;47.24;99946.00;5010857;28;20297;-70
2023/09/07 10:46:41;;;;;;;17.03;7.03;;;;;;;29.76;47.12;99940.13;5010479;28;20202;-70
2023/09/07 10:49:10;;;;;;;7.07;6.17;;;;;;;29.93;45.85;99945.72;5010824;28;20213;-72
2023/09/07 10:51:42;;;;;;;9.37;7.40;;;;;;;29.99;46.26;99952.72;5010179;28;20221;-70
2023/09/07 10:54:15;;;;;;;17.07;6.50;;;;;;;30.11;44.49;99952.97;5009149;28;20194;-71
2023/09/07 10:56:45;;;;;;;6.60;5.63;;;;;;;30.31;44.66;99952.47;5010151;28;20205;-70
2023/09/07 10:59:12;;;;;;;9.33;6.10;;;;;;;30.47;43.55;99956.44;5009478;28;20225;-70
2023/09/07 11:01:40;;;;;;;9.27;5.97;;;;;;;30.39;44.25;99945.41;5010050;28;20259;-69
2023/09/07 11:04:10;;;;;;;7.13;5.90;;;;;;;30.14;44.68;99940.59;5010105;28;20198;-70
2023/09/07 11:06:38;;;;;;;9.70;6.17;;;;;;;29.99;46.40;99933.53;5010421;28;20190;-70
2023/09/07 11:09:08;;;;;;;9.67;6.63;;;;;;;30.07;45.10;99929.22;5004377;28;20340;-71
2023/09/07 11:11:36;;;;;;;6.97;6.17;;;;;;;29.85;46.31;99930.06;5011145;28;20291;-71
2023/09/07 11:14:03;;;;;;;6.37;5.87;;;;;;;29.72;45.19;99932.88;5009698;28;20696;-71
2023/09/07 11:16:30;;;;;;;6.67;6.10;;;;;;;29.75;47.09;99919.34;5009399;28;20194;-71
2023/09/07 11:19:00;;;;;;;16.70;6.77;;;;;;;29.74;47.89;99909.50;5009071;28;20284;-70
2023/09/07 11:21:27;;;;;;;7.70;5.60;;;;;;;29.71;44.83;99920.25;5009575;28;20204;-71